sensor_id;sensor_type;location;lat;lon;timestamp;pressure;altitude;pressure_sealevel;temperature;humidity
44934;BME280;30667;43.614;1.442;2023-01-30T00:02:10;101329.72;;;3.80;100.00
44934;BME280;30667;43.614;1.442;2023-01-30T00:04:35;101325.59;;;3.77;100.00
44934;BME280;30667;43.614;1.442;2023-01-30T00:07:01;101323.50;;;3.73;100.00
44934;BME280;30667;43.614;1.442;2023-01-30T00:09:26;101321.66;;;3.73;100.00
44934;BME280;30667;43.614;1.442;2023-01-30T00:11:52;101322.50;;;3.74;100.00
44934;BME280;30667;43.614;1.442;2023-01-30T00:14:17;101330.13;;;3.77;100.00
44934;BME280;30667;43.614;1.442;2023-01-30T00:16:42;101320.63;;;3.74;100.00
44934;BME280;30667;43.614;1.442;2023-01-30T00:19:08;101327.47;;;3.77;100.00
44934;BME280;30667;43.614;1.442;2023-01-30T00:21:33;101321.44;;;3.75;100.00
44934;BME280;30667;43.614;1.442;2023-01-30T00:23:58;101323.94;;;3.76;100.00
44934;BME280;30667;43.614;1.442;2023-01-30T00:26:25;101321.91;;;3.78;100.00
44934;BME280;30667;43.614;1.442;2023-01-30T00:28:50;101321.66;;;3.73;100.00
44934;BME280;30667;43.614;1.442;2023-01-30T00:31:16;101319.44;;;3.77;100.00
44934;BME280;30667;43.614;1.442;2023-01-30T00:33:41;101317.75;;;3.76;100.00
44934;BME280;30667;43.614;1.442;2023-01-30T00:36:08;101314.06;;;3.77;100.00
44934;BME280;30667;43.614;1.442;2023-01-30T00:38:34;101317.16;;;3.74;100.00
44934;BME280;30667;43.614;1.442;2023-01-30T00:41:00;101317.75;;;3.76;100.00
44934;BME280;30667;43.614;1.442;2023-01-30T00:43:25;101312.22;;;3.77;100.00
44934;BME280;30667;43.614;1.442;2023-01-30T00:46:19;101314.47;;;3.74;100.00
44934;BME280;30667;43.614;1.442;2023-01-30T00:49:05;101308.47;;;3.72;100.00
44934;BME280;30667;43.614;1.442;2023-01-30T00:51:31;101307.66;;;3.71;100.00
44934;BME280;30667;43.614;1.442;2023-01-30T00:53:56;101301.47;;;3.71;100.00
44934;BME280;30667;43.614;1.442;2023-01-30T00:56:21;101297.34;;;3.68;100.00
44934;BME280;30667;43.614;1.442;2023-01-30T00:58:47;101302.50;;;3.70;100.00
44934;BME280;30667;43.614;1.442;2023-01-30T01:01:12;101307.66;;;3.71;100.00
44934;BME280;30667;43.614;1.442;2023-01-30T01:03:38;101305.19;;;3.70;100.00
44934;BME280;30667;43.614;1.442;2023-01-30T01:06:03;101308.06;;;3.68;100.00
44934;BME280;30667;43.614;1.442;2023-01-30T01:08:29;101302.50;;;3.70;100.00
44934;BME280;30667;43.614;1.442;2023-01-30T01:10:54;101302.50;;;3.70;100.00
44934;BME280;30667;43.614;1.442;2023-01-30T01:13:20;101308.44;;;3.65;100.00
44934;BME280;30667;43.614;1.442;2023-01-30T01:15:45;101308.25;;;3.67;100.00
44934;BME280;30667;43.614;1.442;2023-01-30T01:18:10;101307.84;;;3.70;100.00
44934;BME280;30667;43.614;1.442;2023-01-30T01:20:36;101308.69;;;3.70;100.00
44934;BME280;30667;43.614;1.442;2023-01-30T01:23:02;101312.78;;;3.66;100.00
44934;BME280;30667;43.614;1.442;2023-01-30T01:25:27;101310.94;;;3.67;100.00
44934;BME280;30667;43.614;1.442;2023-01-30T01:27:53;101317.53;;;3.64;100.00
44934;BME280;30667;43.614;1.442;2023-01-30T01:30:18;101315.03;;;3.62;100.00
44934;BME280;30667;43.614;1.442;2023-01-30T01:32:44;101319.34;;;3.63;100.00
44934;BME280;30667;43.614;1.442;2023-01-30T01:35:09;101316.69;;;3.63;100.00
44934;BME280;30667;43.614;1.442;2023-01-30T01:37:35;101317.72;;;3.62;100.00
44934;BME280;30667;43.614;1.442;2023-01-30T01:40:00;101321.22;;;3.63;100.00
44934;BME280;30667;43.614;1.442;2023-01-30T01:42:44;101323.28;;;3.61;100.00
44934;BME280;30667;43.614;1.442;2023-01-30T01:48:07;101331.69;;;3.58;100.00
44934;BME280;30667;43.614;1.442;2023-01-30T01:50:45;101337.88;;;3.58;100.00
44934;BME280;30667;43.614;1.442;2023-01-30T01:53:16;101336.44;;;3.56;100.00
44934;BME280;30667;43.614;1.442;2023-01-30T01:55:44;101339.91;;;3.56;100.00
44934;BME280;30667;43.614;1.442;2023-01-30T01:58:18;101343.00;;;3.53;100.00
44934;BME280;30667;43.614;1.442;2023-01-30T02:00:47;101344.19;;;3.51;100.00
44934;BME280;30667;43.614;1.442;2023-01-30T02:03:18;101349.34;;;3.52;100.00
44934;BME280;30667;43.614;1.442;2023-01-30T02:05:47;101352.81;;;3.46;100.00
44934;BME280;30667;43.614;1.442;2023-01-30T02:08:17;101357.78;;;3.49;100.00
44934;BME280;30667;43.614;1.442;2023-01-30T02:10:47;101358.81;;;3.48;100.00
44934;BME280;30667;43.614;1.442;2023-01-30T02:13:13;101360.84;;;3.46;100.00
44934;BME280;30667;43.614;1.442;2023-01-30T02:15:38;101358.81;;;3.48;100.00
44934;BME280;30667;43.614;1.442;2023-01-30T02:18:04;101370.53;;;3.47;100.00
44934;BME280;30667;43.614;1.442;2023-01-30T02:47:43;101343.16;;;3.45;100.00
44934;BME280;30667;43.614;1.442;2023-01-30T02:50:18;101345.00;;;3.44;100.00
44934;BME280;30667;43.614;1.442;2023-01-30T02:52:45;101334.09;;;3.46;100.00
44934;BME280;30667;43.614;1.442;2023-01-30T02:55:20;101335.13;;;3.45;100.00
44934;BME280;30667;43.614;1.442;2023-01-30T02:57:46;101324.44;;;3.45;100.00
44934;BME280;30667;43.614;1.442;2023-01-30T03:00:13;101320.28;;;3.42;100.00
44934;BME280;30667;43.614;1.442;2023-01-30T03:11:01;101312.47;;;3.41;100.00
44934;BME280;30667;43.614;1.442;2023-01-30T03:13:38;101313.28;;;3.41;100.00
44934;BME280;30667;43.614;1.442;2023-01-30T03:16:12;101315.75;;;3.43;100.00
44934;BME280;30667;43.614;1.442;2023-01-30T03:18:43;101314.94;;;3.42;100.00
44934;BME280;30667;43.614;1.442;2023-01-30T03:21:10;101318.44;;;3.43;100.00
44934;BME280;30667;43.614;1.442;2023-01-30T03:23:36;101318.63;;;3.41;100.00
44934;BME280;30667;43.614;1.442;2023-01-30T03:26:04;101317.41;;;3.44;100.00
44934;BME280;30667;43.614;1.442;2023-01-30T03:28:31;101323.59;;;3.44;100.00
44934;BME280;30667;43.614;1.442;2023-01-30T03:30:57;101311.44;;;3.42;100.00
44934;BME280;30667;43.614;1.442;2023-01-30T03:33:22;101325.25;;;3.45;100.00
44934;BME280;30667;43.614;1.442;2023-01-30T03:35:49;101329.78;;;3.45;100.00
44934;BME280;30667;43.614;1.442;2023-01-30T03:38:15;101323.78;;;3.43;100.00
44934;BME280;30667;43.614;1.442;2023-01-30T03:40:42;101326.03;;;3.39;100.00
44934;BME280;30667;43.614;1.442;2023-01-30T03:43:08;101338.41;;;3.40;100.00
44934;BME280;30667;43.614;1.442;2023-01-30T03:45:33;101342.72;;;3.41;100.00
44934;BME280;30667;43.614;1.442;2023-01-30T03:47:59;101345.38;;;3.41;100.00
44934;BME280;30667;43.614;1.442;2023-01-30T03:50:24;101348.28;;;3.40;100.00
44934;BME280;30667;43.614;1.442;2023-01-30T03:52:52;101352.59;;;3.41;100.00
44934;BME280;30667;43.614;1.442;2023-01-30T03:55:18;101355.47;;;3.39;100.00
44934;BME280;30667;43.614;1.442;2023-01-30T03:57:43;101357.94;;;3.41;100.00
44934;BME280;30667;43.614;1.442;2023-01-30T04:00:09;101361.66;;;3.40;100.00
44934;BME280;30667;43.614;1.442;2023-01-30T04:02:34;101358.97;;;3.40;100.00
44934;BME280;30667;43.614;1.442;2023-01-30T04:05:00;101359.81;;;3.40;100.00
44934;BME280;30667;43.614;1.442;2023-01-30T04:07:28;101365.97;;;3.41;100.00
44934;BME280;30667;43.614;1.442;2023-01-30T04:09:54;101367.63;;;3.42;100.00
44934;BME280;30667;43.614;1.442;2023-01-30T04:12:19;101368.44;;;3.42;100.00
44934;BME280;30667;43.614;1.442;2023-01-30T04:14:44;101365.16;;;3.40;100.00
44934;BME280;30667;43.614;1.442;2023-01-30T04:17:10;101368.03;;;3.39;100.00
44934;BME280;30667;43.614;1.442;2023-01-30T04:19:35;101376.88;;;3.39;100.00
44934;BME280;30667;43.614;1.442;2023-01-30T04:22:00;101380.59;;;3.38;100.00
44934;BME280;30667;43.614;1.442;2023-01-30T04:24:26;101379.94;;;3.36;100.00
44934;BME280;30667;43.614;1.442;2023-01-30T04:26:51;101392.50;;;3.36;100.00
44934;BME280;30667;43.614;1.442;2023-01-30T04:29:17;101399.25;;;3.32;100.00
44934;BME280;30667;43.614;1.442;2023-01-30T04:31:42;101409.13;;;3.31;100.00
44934;BME280;30667;43.614;1.442;2023-01-30T04:34:07;101411.38;;;3.27;100.00
44934;BME280;30667;43.614;1.442;2023-01-30T04:36:33;101417.34;;;3.30;100.00
44934;BME280;30667;43.614;1.442;2023-01-30T04:38:58;101423.09;;;3.26;100.00
44934;BME280;30667;43.614;1.442;2023-01-30T04:41:23;101434.59;;;3.27;100.00
44934;BME280;30667;43.614;1.442;2023-01-30T04:43:49;101433.97;;;3.25;100.00
44934;BME280;30667;43.614;1.442;2023-01-30T04:46:14;101440.13;;;3.25;100.00
44934;BME280;30667;43.614;1.442;2023-01-30T04:48:40;101435.81;;;3.24;100.00
44934;BME280;30667;43.614;1.442;2023-01-30T04:51:05;101431.50;;;3.23;100.00
44934;BME280;30667;43.614;1.442;2023-01-30T04:53:31;101433.72;;;3.20;100.00
44934;BME280;30667;43.614;1.442;2023-01-30T04:55:56;101431.06;;;3.20;100.00
44934;BME280;30667;43.614;1.442;2023-01-30T04:58:22;101422.84;;;3.21;100.00
44934;BME280;30667;43.614;1.442;2023-01-30T05:00:47;101419.34;;;3.21;100.00
44934;BME280;30667;43.614;1.442;2023-01-30T05:03:14;101416.22;;;3.17;100.00
44934;BME280;30667;43.614;1.442;2023-01-30T05:05:39;101409.84;;;3.18;100.00
44934;BME280;30667;43.614;1.442;2023-01-30T05:08:05;101402.66;;;3.19;100.00
44934;BME280;30667;43.614;1.442;2023-01-30T05:10:30;101399.78;;;3.20;100.00
44934;BME280;30667;43.614;1.442;2023-01-30T05:13:00;101398.97;;;3.20;100.00
44934;BME280;30667;43.614;1.442;2023-01-30T05:15:26;101388.25;;;3.20;100.00
44934;BME280;30667;43.614;1.442;2023-01-30T05:17:51;101395.91;;;3.23;100.00
44934;BME280;30667;43.614;1.442;2023-01-30T05:20:17;101376.94;;;3.18;100.00
44934;BME280;30667;43.614;1.442;2023-01-30T05:22:42;101383.50;;;3.15;100.00
44934;BME280;30667;43.614;1.442;2023-01-30T05:25:08;101388.03;;;3.15;100.00
44934;BME280;30667;43.614;1.442;2023-01-30T05:27:33;101381.00;;;3.14;100.00
44934;BME280;30667;43.614;1.442;2023-01-30T05:29:59;101385.75;;;3.12;100.00
44934;BME280;30667;43.614;1.442;2023-01-30T05:32:24;101388.81;;;3.08;100.00
44934;BME280;30667;43.614;1.442;2023-01-30T05:34:51;101395.34;;;3.06;100.00
44934;BME280;30667;43.614;1.442;2023-01-30T05:37:16;101395.53;;;3.04;100.00
44934;BME280;30667;43.614;1.442;2023-01-30T05:39:42;101380.34;;;3.05;100.00
44934;BME280;30667;43.614;1.442;2023-01-30T05:42:07;101382.19;;;3.04;100.00
44934;BME280;30667;43.614;1.442;2023-01-30T05:44:32;101391.66;;;3.07;100.00
44934;BME280;30667;43.614;1.442;2023-01-30T05:46:58;101395.34;;;3.06;100.00
44934;BME280;30667;43.614;1.442;2023-01-30T05:49:23;101396.19;;;3.06;100.00
44934;BME280;30667;43.614;1.442;2023-01-30T05:51:49;101393.53;;;3.06;100.00
44934;BME280;30667;43.614;1.442;2023-01-30T05:54:15;101403.38;;;3.06;100.00
44934;BME280;30667;43.614;1.442;2023-01-30T05:56:40;101408.72;;;3.06;100.00
44934;BME280;30667;43.614;1.442;2023-01-30T05:59:05;101403.56;;;3.04;100.00
44934;BME280;30667;43.614;1.442;2023-01-30T06:01:31;101403.94;;;3.01;100.00
44934;BME280;30667;43.614;1.442;2023-01-30T06:03:57;101405.81;;;3.01;100.00
44934;BME280;30667;43.614;1.442;2023-01-30T06:06:24;101409.50;;;3.00;100.00
44934;BME280;30667;43.614;1.442;2023-01-30T06:08:54;101415.03;;;2.98;100.00
44934;BME280;30667;43.614;1.442;2023-01-30T06:11:20;101410.34;;;3.00;100.00
44934;BME280;30667;43.614;1.442;2023-01-30T06:13:46;101410.91;;;2.96;100.00
44934;BME280;30667;43.614;1.442;2023-01-30T06:16:13;101411.91;;;2.95;100.00
44934;BME280;30667;43.614;1.442;2023-01-30T06:18:39;101410.28;;;2.94;100.00
44934;BME280;30667;43.614;1.442;2023-01-30T06:21:05;101411.09;;;2.94;100.00
44934;BME280;30667;43.614;1.442;2023-01-30T06:23:31;101415.41;;;2.95;100.00
44934;BME280;30667;43.614;1.442;2023-01-30T06:25:57;101418.94;;;2.96;100.00
44934;BME280;30667;43.614;1.442;2023-01-30T06:28:24;101423.66;;;2.94;100.00
44934;BME280;30667;43.614;1.442;2023-01-30T06:30:49;101429.19;;;2.92;100.00
44934;BME280;30667;43.614;1.442;2023-01-30T06:33:15;101418.69;;;2.90;100.00
44934;BME280;30667;43.614;1.442;2023-01-30T06:35:41;101412.25;;;2.85;100.00
44934;BME280;30667;43.614;1.442;2023-01-30T06:38:08;101416.97;;;2.83;100.00
44934;BME280;30667;43.614;1.442;2023-01-30T06:40:36;101422.13;;;2.84;100.00
44934;BME280;30667;43.614;1.442;2023-01-30T06:43:01;101406.28;;;2.83;100.00
44934;BME280;30667;43.614;1.442;2023-01-30T06:45:27;101417.78;;;2.83;100.00
44934;BME280;30667;43.614;1.442;2023-01-30T06:47:54;101409.97;;;2.82;100.00
44934;BME280;30667;43.614;1.442;2023-01-30T06:50:22;101412.00;;;2.80;100.00
44934;BME280;30667;43.614;1.442;2023-01-30T06:52:48;101415.50;;;2.80;100.00
44934;BME280;30667;43.614;1.442;2023-01-30T06:55:16;101417.16;;;2.81;100.00
44934;BME280;30667;43.614;1.442;2023-01-30T06:57:43;101418.34;;;2.79;100.00
44934;BME280;30667;43.614;1.442;2023-01-30T07:00:15;101413.00;;;2.79;100.00
44934;BME280;30667;43.614;1.442;2023-01-30T07:02:41;101416.72;;;2.78;100.00
44934;BME280;30667;43.614;1.442;2023-01-30T07:05:08;101420.03;;;2.80;100.00
44934;BME280;30667;43.614;1.442;2023-01-30T07:07:34;101425.38;;;2.80;100.00
44934;BME280;30667;43.614;1.442;2023-01-30T07:10:00;101418.56;;;2.77;100.00
44934;BME280;30667;43.614;1.442;2023-01-30T07:12:27;101435.44;;;2.78;100.00
44934;BME280;30667;43.614;1.442;2023-01-30T07:14:53;101436.06;;;2.80;100.00
44934;BME280;30667;43.614;1.442;2023-01-30T07:17:19;101448.56;;;2.79;100.00
44934;BME280;30667;43.614;1.442;2023-01-30T07:19:45;101450.06;;;2.82;100.00
44934;BME280;30667;43.614;1.442;2023-01-30T07:22:11;101451.72;;;2.83;100.00
44934;BME280;30667;43.614;1.442;2023-01-30T07:24:37;101447.19;;;2.83;100.00
44934;BME280;30667;43.614;1.442;2023-01-30T07:27:06;101450.69;;;2.84;100.00
44934;BME280;30667;43.614;1.442;2023-01-30T07:29:34;101450.69;;;2.84;100.00
44934;BME280;30667;43.614;1.442;2023-01-30T07:31:59;101447.19;;;2.83;100.00
44934;BME280;30667;43.614;1.442;2023-01-30T07:34:25;101442.66;;;2.84;100.00
44934;BME280;30667;43.614;1.442;2023-01-30T07:36:50;101439.81;;;2.85;100.00
44934;BME280;30667;43.614;1.442;2023-01-30T07:39:15;101452.16;;;2.86;100.00
44934;BME280;30667;43.614;1.442;2023-01-30T07:41:41;101447.81;;;2.85;100.00
44934;BME280;30667;43.614;1.442;2023-01-30T07:44:06;101443.31;;;2.86;100.00
44934;BME280;30667;43.614;1.442;2023-01-30T07:46:32;101444.31;;;2.85;100.00
44934;BME280;30667;43.614;1.442;2023-01-30T07:49:00;101451.16;;;2.87;100.00
44934;BME280;30667;43.614;1.442;2023-01-30T07:51:26;101449.28;;;2.88;100.00
44934;BME280;30667;43.614;1.442;2023-01-30T07:53:52;101445.81;;;2.87;100.00
44934;BME280;30667;43.614;1.442;2023-01-30T07:56:17;101445.81;;;2.87;100.00
44934;BME280;30667;43.614;1.442;2023-01-30T07:58:44;101454.84;;;2.86;100.00
44934;BME280;30667;43.614;1.442;2023-01-30T08:01:10;101449.28;;;2.88;100.00
44934;BME280;30667;43.614;1.442;2023-01-30T08:03:35;101454.84;;;2.86;100.00
44934;BME280;30667;43.614;1.442;2023-01-30T08:06:01;101462.03;;;2.86;100.00
44934;BME280;30667;43.614;1.442;2023-01-30T08:08:26;101451.16;;;2.87;100.00
44934;BME280;30667;43.614;1.442;2023-01-30T08:10:52;101451.16;;;2.87;100.00
44934;BME280;30667;43.614;1.442;2023-01-30T08:13:17;101457.06;;;2.83;100.00
44934;BME280;30667;43.614;1.442;2023-01-30T08:15:42;101467.56;;;2.84;100.00
44934;BME280;30667;43.614;1.442;2023-01-30T08:18:08;101470.25;;;2.84;100.00
44934;BME280;30667;43.614;1.442;2023-01-30T08:20:34;101468.19;;;2.86;100.00
44934;BME280;30667;43.614;1.442;2023-01-30T08:23:00;101480.38;;;2.89;100.00
44934;BME280;30667;43.614;1.442;2023-01-30T08:25:26;101485.16;;;2.94;100.00
44934;BME280;30667;43.614;1.442;2023-01-30T08:27:52;101481.06;;;2.98;100.00
44934;BME280;30667;43.614;1.442;2023-01-30T08:30:19;101492.38;;;3.00;100.00
44934;BME280;30667;43.614;1.442;2023-01-30T08:32:44;101493.28;;;3.07;100.00
44934;BME280;30667;43.614;1.442;2023-01-30T08:35:10;101496.59;;;3.09;100.00
44934;BME280;30667;43.614;1.442;2023-01-30T08:37:35;101491.88;;;3.11;100.00
44934;BME280;30667;43.614;1.442;2023-01-30T08:40:01;101493.72;;;3.11;100.00
44934;BME280;30667;43.614;1.442;2023-01-30T08:42:26;101497.44;;;3.09;100.00
44934;BME280;30667;43.614;1.442;2023-01-30T08:44:52;101501.94;;;3.09;100.00
44934;BME280;30667;43.614;1.442;2023-01-30T08:47:17;101493.72;;;3.11;100.00
44934;BME280;30667;43.614;1.442;2023-01-30T08:49:43;101488.19;;;3.12;100.00
44934;BME280;30667;43.614;1.442;2023-01-30T08:52:09;101483.03;;;3.11;100.00
44934;BME280;30667;43.614;1.442;2023-01-30T08:54:34;101476.66;;;3.12;100.00
44934;BME280;30667;43.614;1.442;2023-01-30T08:57:00;101487.16;;;3.13;100.00
44934;BME280;30667;43.614;1.442;2023-01-30T08:59:25;101498.88;;;3.12;100.00
44934;BME280;30667;43.614;1.442;2023-01-30T09:01:50;101492.97;;;3.17;100.00
44934;BME280;30667;43.614;1.442;2023-01-30T09:04:16;101486.59;;;3.18;100.00
44934;BME280;30667;43.614;1.442;2023-01-30T09:06:41;101475.72;;;3.19;100.00
44934;BME280;30667;43.614;1.442;2023-01-30T09:09:07;101473.28;;;3.24;100.00
44934;BME280;30667;43.614;1.442;2023-01-30T09:11:32;101475.19;;;3.31;100.00
44934;BME280;30667;43.614;1.442;2023-01-30T09:13:57;101492.94;;;3.38;100.00
44934;BME280;30667;43.614;1.442;2023-01-30T09:16:23;101498.34;;;3.45;100.00
44934;BME280;30667;43.614;1.442;2023-01-30T09:18:48;101500.06;;;3.53;100.00
44934;BME280;30667;43.614;1.442;2023-01-30T09:21:14;101507.47;;;3.57;100.00
44934;BME280;30667;43.614;1.442;2023-01-30T09:23:40;101517.78;;;3.60;100.00
44934;BME280;30667;43.614;1.442;2023-01-30T09:26:05;101515.81;;;3.69;100.00
44934;BME280;30667;43.614;1.442;2023-01-30T09:28:32;101522.38;;;3.67;98.54
44934;BME280;30667;43.614;1.442;2023-01-30T09:30:58;101530.59;;;3.65;99.91
44934;BME280;30667;43.614;1.442;2023-01-30T09:33:24;101527.72;;;3.67;98.38
44934;BME280;30667;43.614;1.442;2023-01-30T09:35:50;101528.44;;;3.75;99.31
44934;BME280;30667;43.614;1.442;2023-01-30T09:38:16;101536.25;;;3.77;97.85
44934;BME280;30667;43.614;1.442;2023-01-30T09:46:12;101523.59;;;3.64;99.63
44934;BME280;30667;43.614;1.442;2023-01-30T09:49:28;101529.97;;;3.63;100.00
44934;BME280;30667;43.614;1.442;2023-01-30T09:54:28;101537.47;;;3.74;100.00
44934;BME280;30667;43.614;1.442;2023-01-30T09:57:16;101545.13;;;3.77;99.78
44934;BME280;30667;43.614;1.442;2023-01-30T10:05:14;101544.00;;;3.93;97.52
44934;BME280;30667;43.614;1.442;2023-01-30T10:24:14;101558.53;;;4.12;96.76
44934;BME280;30667;43.614;1.442;2023-01-30T10:26:43;101558.97;;;4.16;95.94
44934;BME280;30667;43.614;1.442;2023-01-30T10:29:19;101564.91;;;4.11;95.12
44934;BME280;30667;43.614;1.442;2023-01-30T10:31:50;101560.81;;;4.15;95.84
44934;BME280;30667;43.614;1.442;2023-01-30T10:34:24;101555.03;;;4.12;96.09
44934;BME280;30667;43.614;1.442;2023-01-30T10:37:07;101564.13;;;4.17;96.85
44934;BME280;30667;43.614;1.442;2023-01-30T10:42:30;101550.09;;;4.15;96.73
44934;BME280;30667;43.614;1.442;2023-01-30T10:45:08;101537.38;;;4.24;96.14
44934;BME280;30667;43.614;1.442;2023-01-30T10:50:24;101535.38;;;4.33;95.05
44934;BME280;30667;43.614;1.442;2023-01-30T10:55:33;101532.53;;;4.48;93.57
44934;BME280;30667;43.614;1.442;2023-01-30T10:58:16;101521.41;;;4.44;93.60
44934;BME280;30667;43.614;1.442;2023-01-30T11:06:11;101519.56;;;4.51;92.95
44934;BME280;30667;43.614;1.442;2023-01-30T11:08:37;101530.47;;;4.50;94.34
44934;BME280;30667;43.614;1.442;2023-01-30T11:13:47;101519.44;;;4.73;94.30
44934;BME280;30667;43.614;1.442;2023-01-30T11:16:14;101515.94;;;4.72;92.60
44934;BME280;30667;43.614;1.442;2023-01-30T11:18:48;101519.44;;;4.80;92.41
44934;BME280;30667;43.614;1.442;2023-01-30T11:21:24;101515.94;;;4.72;91.63
44934;BME280;30667;43.614;1.442;2023-01-30T11:23:50;101508.91;;;4.71;90.15
44934;BME280;30667;43.614;1.442;2023-01-30T11:26:20;101508.31;;;4.76;91.27
44934;BME280;30667;43.614;1.442;2023-01-30T11:28:46;101508.09;;;4.78;90.23
44934;BME280;30667;43.614;1.442;2023-01-30T11:31:21;101513.28;;;4.86;90.85
44934;BME280;30667;43.614;1.442;2023-01-30T11:34:02;101507.50;;;4.82;90.61
44934;BME280;30667;43.614;1.442;2023-01-30T11:36:34;101504.63;;;4.84;89.88
44934;BME280;30667;43.614;1.442;2023-01-30T11:41:56;101511.06;;;5.09;89.75
44934;BME280;30667;43.614;1.442;2023-01-30T11:46:53;101499.53;;;5.16;90.28
44934;BME280;30667;43.614;1.442;2023-01-30T11:49:20;101497.03;;;5.14;88.24
44934;BME280;30667;43.614;1.442;2023-01-30T11:51:48;101495.78;;;5.17;88.64
44934;BME280;30667;43.614;1.442;2023-01-30T11:56:56;101490.41;;;5.17;90.85
44934;BME280;30667;43.614;1.442;2023-01-30T12:02:04;101487.56;;;5.25;87.85
44934;BME280;30667;43.614;1.442;2023-01-30T12:04:35;101482.78;;;5.14;87.45
44934;BME280;30667;43.614;1.442;2023-01-30T12:07:09;101482.78;;;5.07;88.52
44934;BME280;30667;43.614;1.442;2023-01-30T12:09:39;101481.34;;;5.18;88.90
44934;BME280;30667;43.614;1.442;2023-01-30T12:12:26;101471.22;;;5.13;89.63
44934;BME280;30667;43.614;1.442;2023-01-30T12:14:59;101474.75;;;5.20;89.71
44934;BME280;30667;43.614;1.442;2023-01-30T12:17:43;101461.75;;;5.24;90.31
44934;BME280;30667;43.614;1.442;2023-01-30T12:20:24;101468.34;;;5.21;89.40
44934;BME280;30667;43.614;1.442;2023-01-30T12:25:56;101460.91;;;5.17;90.80
44934;BME280;30667;43.614;1.442;2023-01-30T12:29:05;101457.19;;;5.24;90.99
44934;BME280;30667;43.614;1.442;2023-01-30T12:31:49;101462.56;;;5.18;90.60
44934;BME280;30667;43.614;1.442;2023-01-30T12:34:23;101462.16;;;5.14;91.08
44934;BME280;30667;43.614;1.442;2023-01-30T12:39:55;101446.88;;;5.28;91.77
44934;BME280;30667;43.614;1.442;2023-01-30T12:45:30;101431.63;;;5.22;91.59
44934;BME280;30667;43.614;1.442;2023-01-30T12:48:47;101435.75;;;5.11;91.28
44934;BME280;30667;43.614;1.442;2023-01-30T12:54:00;101423.56;;;5.08;92.20
44934;BME280;30667;43.614;1.442;2023-01-30T12:56:51;101415.69;;;5.14;92.59
44934;BME280;30667;43.614;1.442;2023-01-30T13:05:31;101415.91;;;5.32;90.49
44934;BME280;30667;43.614;1.442;2023-01-30T13:10:50;101401.44;;;5.46;91.31
44934;BME280;30667;43.614;1.442;2023-01-30T13:13:32;101401.25;;;5.41;89.43
44934;BME280;30667;43.614;1.442;2023-01-30T13:18:40;101404.34;;;5.38;89.86
44934;BME280;30667;43.614;1.442;2023-01-30T13:21:15;101385.75;;;5.43;90.26
44934;BME280;30667;43.614;1.442;2023-01-30T13:26:35;101385.72;;;5.50;89.54
44934;BME280;30667;43.614;1.442;2023-01-30T13:29:04;101385.34;;;5.46;88.23
44934;BME280;30667;43.614;1.442;2023-01-30T13:31:37;101388.41;;;5.57;89.23
44934;BME280;30667;43.614;1.442;2023-01-30T13:34:32;101385.31;;;5.53;89.85
44934;BME280;30667;43.614;1.442;2023-01-30T13:37:02;101391.53;;;5.54;90.34
44934;BME280;30667;43.614;1.442;2023-01-30T13:39:56;101383.47;;;5.54;90.69
44934;BME280;30667;43.614;1.442;2023-01-30T13:42:35;101389.84;;;5.59;90.19
44934;BME280;30667;43.614;1.442;2023-01-30T13:45:04;101377.47;;;5.52;89.62
44934;BME280;30667;43.614;1.442;2023-01-30T13:47:40;101371.88;;;5.60;90.93
44934;BME280;30667;43.614;1.442;2023-01-30T13:53:46;101364.22;;;5.70;89.83
44934;BME280;30667;43.614;1.442;2023-01-30T13:56:25;101364.41;;;5.69;91.09
44934;BME280;30667;43.614;1.442;2023-01-30T14:09:41;101366.66;;;5.78;91.65
44934;BME280;30667;43.614;1.442;2023-01-30T14:12:24;101364.59;;;5.74;91.16
44934;BME280;30667;43.614;1.442;2023-01-30T14:15:03;101364.34;;;5.82;92.91
44934;BME280;30667;43.614;1.442;2023-01-30T14:17:28;101368.75;;;5.70;90.50
44934;BME280;30667;43.614;1.442;2023-01-30T14:19:58;101370.00;;;5.67;92.49
44934;BME280;30667;43.614;1.442;2023-01-30T14:22:32;101370.97;;;5.86;93.44
44934;BME280;30667;43.614;1.442;2023-01-30T14:32:56;101382.91;;;5.90;89.76
44934;BME280;30667;43.614;1.442;2023-01-30T14:35:24;101376.91;;;5.95;90.16
44934;BME280;30667;43.614;1.442;2023-01-30T14:37:51;101374.25;;;5.88;90.23
44934;BME280;30667;43.614;1.442;2023-01-30T14:40:30;101375.34;;;5.74;90.39
44934;BME280;30667;43.614;1.442;2023-01-30T14:45:53;101379.94;;;5.67;93.09
44934;BME280;30667;43.614;1.442;2023-01-30T14:59:45;101363.59;;;5.68;94.60
44934;BME280;30667;43.614;1.442;2023-01-30T15:05:04;101360.50;;;5.71;93.42
44934;BME280;30667;43.614;1.442;2023-01-30T15:18:03;101355.53;;;5.61;98.65
44934;BME280;30667;43.614;1.442;2023-01-30T15:31:53;101362.13;;;5.72;97.67
44934;BME280;30667;43.614;1.442;2023-01-30T15:34:19;101361.69;;;5.75;98.39
44934;BME280;30667;43.614;1.442;2023-01-30T15:36:45;101348.88;;;5.77;97.43
44934;BME280;30667;43.614;1.442;2023-01-30T15:39:22;101344.94;;;5.80;96.74
44934;BME280;30667;43.614;1.442;2023-01-30T15:41:49;101355.47;;;5.81;97.05
44934;BME280;30667;43.614;1.442;2023-01-30T15:50:02;101355.47;;;5.81;97.83
44934;BME280;30667;43.614;1.442;2023-01-30T15:55:05;101371.81;;;5.80;100.00
44934;BME280;30667;43.614;1.442;2023-01-30T15:57:35;101374.88;;;5.83;99.49
44934;BME280;30667;43.614;1.442;2023-01-30T16:00:04;101369.31;;;5.85;100.00
44934;BME280;30667;43.614;1.442;2023-01-30T16:02:34;101372.41;;;5.82;99.28
44934;BME280;30667;43.614;1.442;2023-01-30T16:05:16;101378.81;;;5.88;99.48
44934;BME280;30667;43.614;1.442;2023-01-30T16:07:45;101380.25;;;5.83;98.97
44934;BME280;30667;43.614;1.442;2023-01-30T16:10:13;101386.47;;;5.84;97.69
44934;BME280;30667;43.614;1.442;2023-01-30T16:12:39;101387.94;;;5.80;98.80